Jewett, Ohio
Current Conditions -  °F | °C
As of 3:53 PM on Saturday 25 Oct 2014 (Local Time) from KPHD Reporting Station
Few Clouds Few Clouds  
Wind Chill: 71°   Ceiling: Unl
Heat Index: 71°   Visibility: 10mi
Dew Point: 54°   Wind: 14mph
Humidity: 55%   Direction: 240°WSW
Pressure: 29.81"   Gusts: 21mph
Location:  40.37°N, 81.01°W
Report Text: KPHD 251953Z AUTO 24012G18KT 10SM FEW036 22/12 A2981 RMK AO2 SLP094 T02170122
Loading
Personal Weather Stations






























Interactive Weather Map
Tropical Storm Tracking
New forecast layout! Learn more

10-Day Weather Forecast

Advertisements
Track Severe Weather on mobile